Time;durP1;ratioP1;P1;durP2;ratioP2;P2;SDS_P1;SDS_P2;PMS_P1;PMS_P2;Temp;Humidity;BMP_temperature;BMP_pressure;BME280_temperature;BME280_humidity;BME280_pressure;Samples;Min_cycle;Max_cycle;Signal;HPM_P1;HPM_P2
2022/06/09 00:00:27;;;;;;;1.37;0.90;;;;;;;;;;5000698;28;20744;-33
2022/06/09 00:02:56;;;;;;;0.90;0.80;;;;;;;;;;4992089;28;20208;-33
2022/06/09 00:05:24;;;;;;;0.70;0.70;;;;;;;;;;5006925;28;20199;-28
2022/06/09 00:07:52;;;;;;;2.07;0.60;;;;;;;;;;5011007;28;20207;-29
2022/06/09 00:10:22;;;;;;;0.70;0.70;;;;;;;;;;4993380;28;20207;-32
2022/06/09 00:12:49;;;;;;;3.20;1.10;;;;;;;;;;4987863;28;20214;-30
2022/06/09 00:15:18;;;;;;;0.90;0.90;;;;;;;;;;4999477;28;20235;-32
2022/06/09 00:17:45;;;;;;;1.20;1.03;;;;;;;;;;4979621;28;20221;-29
2022/06/09 00:20:16;;;;;;;1.17;0.70;;;;;;;;;;4994439;28;20238;-32
2022/06/09 00:22:44;;;;;;;1.77;0.70;;;;;;;;;;5010284;28;20207;-34
2022/06/09 00:25:11;;;;;;;0.73;0.73;;;;;;;;;;4988293;28;20204;-33
2022/06/09 00:27:38;;;;;;;1.23;0.97;;;;;;;;;;4993656;28;20235;-31
2022/06/09 00:30:07;;;;;;;1.07;0.70;;;;;;;;;;4997341;28;20195;-30
2022/06/09 00:32:35;;;;;;;1.00;0.80;;;;;;;;;;4994925;28;20204;-32
2022/06/09 00:35:03;;;;;;;1.10;0.80;;;;;;;;;;4987445;28;20230;-30
2022/06/09 00:37:30;;;;;;;0.60;0.60;;;;;;;;;;5008498;28;20249;-30
2022/06/09 00:39:57;;;;;;;0.70;0.70;;;;;;;;;;4988608;28;20222;-33
2022/06/09 00:42:24;;;;;;;0.63;0.63;;;;;;;;;;4994839;28;20239;-28
2022/06/09 00:44:51;;;;;;;0.70;0.70;;;;;;;;;;4998530;28;20218;-31
2022/06/09 00:47:21;;;;;;;0.70;0.70;;;;;;;;;;4995437;28;20224;-31
2022/06/09 00:49:53;;;;;;;0.67;0.67;;;;;;;;;;4991357;28;20234;-33
2022/06/09 00:54:50;;;;;;;0.87;0.70;;;;;;;;;;5006794;28;20211;-40
2022/06/09 00:57:19;;;;;;;3.20;0.63;;;;;;;;;;5003733;28;20230;-35
2022/06/09 00:59:50;;;;;;;1.37;0.60;;;;;;;;;;5011089;28;20203;-33
2022/06/09 01:02:19;;;;;;;0.70;0.57;;;;;;;;;;4996317;28;20211;-33
2022/06/09 01:04:46;;;;;;;0.60;0.60;;;;;;;;;;5010087;28;20203;-33
2022/06/09 01:07:16;;;;;;;0.67;0.60;;;;;;;;;;5010046;28;20234;-36
2022/06/09 01:09:44;;;;;;;2.93;0.90;;;;;;;;;;5011245;28;20210;-33
2022/06/09 01:12:28;;;;;;;0.60;0.60;;;;;;;;;;5001356;28;20200;-38
2022/06/09 01:14:59;;;;;;;2.50;0.70;;;;;;;;;;5007313;28;20278;-38
2022/06/09 01:17:29;;;;;;;1.27;0.73;;;;;;;;;;4997956;28;20227;-33
2022/06/09 01:20:11;;;;;;;1.40;0.60;;;;;;;;;;5007469;28;20235;-33
2022/06/09 01:22:47;;;;;;;1.33;0.83;;;;;;;;;;5007017;28;20207;-32
2022/06/09 01:25:37;;;;;;;1.93;0.70;;;;;;;;;;4989973;28;20200;-36
2022/06/09 01:28:20;;;;;;;1.40;0.77;;;;;;;;;;4999271;28;20230;-37
2022/06/09 01:30:51;;;;;;;3.00;0.87;;;;;;;;;;4993082;28;20215;-36
2022/06/09 01:33:25;;;;;;;1.47;0.80;;;;;;;;;;4999111;28;20203;-34
2022/06/09 01:35:55;;;;;;;0.40;0.40;;;;;;;;;;5003091;28;20235;-33
2022/06/09 01:38:22;;;;;;;1.13;0.57;;;;;;;;;;5011737;28;20203;-34
2022/06/09 01:40:50;;;;;;;3.73;0.53;;;;;;;;;;5003210;28;20215;-34
2022/06/09 01:43:17;;;;;;;2.20;0.43;;;;;;;;;;5004336;28;20226;-36
2022/06/09 01:45:48;;;;;;;0.43;0.37;;;;;;;;;;5010498;28;20199;-36
2022/06/09 01:48:18;;;;;;;0.53;0.37;;;;;;;;;;4999118;28;20231;-33
2022/06/09 01:50:47;;;;;;;0.50;0.43;;;;;;;;;;5003579;28;20203;-35
2022/06/09 01:53:19;;;;;;;0.47;0.47;;;;;;;;;;5010845;28;20219;-34
2022/06/09 01:55:47;;;;;;;4.20;0.50;;;;;;;;;;5008057;28;20223;-36
2022/06/09 01:58:16;;;;;;;1.60;0.43;;;;;;;;;;5008965;28;20201;-38
2022/06/09 02:00:44;;;;;;;0.60;0.47;;;;;;;;;;5000535;28;20556;-33
2022/06/09 02:03:13;;;;;;;1.77;0.60;;;;;;;;;;5003017;28;20221;-36
2022/06/09 02:05:45;;;;;;;0.50;0.40;;;;;;;;;;5009395;28;20262;-36
2022/06/09 02:08:15;;;;;;;0.30;0.30;;;;;;;;;;5000642;28;20199;-30
2022/06/09 02:10:43;;;;;;;0.50;0.50;;;;;;;;;;5004190;28;20210;-32
2022/06/09 02:13:13;;;;;;;0.37;0.37;;;;;;;;;;5006895;28;20199;-37
2022/06/09 02:15:42;;;;;;;1.60;0.37;;;;;;;;;;4994261;28;20212;-33
2022/06/09 02:18:11;;;;;;;0.40;0.30;;;;;;;;;;4995235;28;20203;-33
2022/06/09 02:20:42;;;;;;;0.83;0.50;;;;;;;;;;5009082;28;20203;-29
2022/06/09 02:23:10;;;;;;;1.13;0.50;;;;;;;;;;4999969;28;20266;-34
2022/06/09 02:25:38;;;;;;;0.67;0.53;;;;;;;;;;4998788;28;20203;-33
2022/06/09 02:28:06;;;;;;;0.50;0.40;;;;;;;;;;5004752;28;20208;-36
2022/06/09 02:30:33;;;;;;;0.53;0.33;;;;;;;;;;5007148;28;20681;-33
2022/06/09 02:33:00;;;;;;;1.70;0.60;;;;;;;;;;4997592;28;20207;-36
2022/06/09 02:35:27;;;;;;;0.63;0.40;;;;;;;;;;5006096;28;20195;-35
2022/06/09 02:37:55;;;;;;;0.87;0.30;;;;;;;;;;5010692;28;20211;-37
2022/06/09 02:40:23;;;;;;;0.60;0.57;;;;;;;;;;5004201;28;20207;-33
2022/06/09 02:42:50;;;;;;;0.40;0.40;;;;;;;;;;5006541;28;20217;-32
2022/06/09 02:45:18;;;;;;;0.73;0.47;;;;;;;;;;5014091;28;20208;-33
2022/06/09 02:47:45;;;;;;;1.63;0.43;;;;;;;;;;5006432;28;20234;-34
2022/06/09 02:50:13;;;;;;;1.90;0.43;;;;;;;;;;5004232;28;20216;-33
2022/06/09 02:52:41;;;;;;;0.40;0.40;;;;;;;;;;5006898;28;20208;-32
2022/06/09 02:55:08;;;;;;;0.97;0.30;;;;;;;;;;5008263;28;20235;-36
2022/06/09 02:57:37;;;;;;;0.50;0.50;;;;;;;;;;5004393;28;20230;-34
2022/06/09 03:00:05;;;;;;;0.53;0.53;;;;;;;;;;5014171;28;20207;-33
2022/06/09 03:02:32;;;;;;;1.30;0.60;;;;;;;;;;5004500;28;20217;-32
2022/06/09 03:04:59;;;;;;;0.47;0.30;;;;;;;;;;5006079;28;20207;-36
2022/06/09 03:07:27;;;;;;;1.03;0.40;;;;;;;;;;5013924;28;20243;-34
2022/06/09 03:09:54;;;;;;;0.40;0.40;;;;;;;;;;5010382;28;20212;-31
2022/06/09 03:12:22;;;;;;;1.00;0.50;;;;;;;;;;5004827;28;20204;-36
2022/06/09 03:14:51;;;;;;;0.50;0.30;;;;;;;;;;5004955;28;20210;-35
2022/06/09 03:17:18;;;;;;;1.50;0.33;;;;;;;;;;5002599;28;20235;-32
2022/06/09 03:19:45;;;;;;;0.40;0.40;;;;;;;;;;5001221;28;20214;-34
2022/06/09 03:22:13;;;;;;;0.40;0.40;;;;;;;;;;5010361;28;20208;-38
2022/06/09 03:24:40;;;;;;;0.43;0.43;;;;;;;;;;5007546;28;20211;-37
2022/06/09 03:27:10;;;;;;;0.60;0.60;;;;;;;;;;5000222;28;20228;-31
2022/06/09 03:29:37;;;;;;;0.40;0.40;;;;;;;;;;5011738;28;20250;-31
2022/06/09 03:32:06;;;;;;;1.00;0.70;;;;;;;;;;5006688;28;20207;-33
2022/06/09 03:34:34;;;;;;;1.20;0.60;;;;;;;;;;5009245;28;20211;-33
2022/06/09 03:37:01;;;;;;;0.60;0.60;;;;;;;;;;5013647;28;20226;-34
2022/06/09 03:39:29;;;;;;;2.93;0.50;;;;;;;;;;5009349;28;20211;-31
2022/06/09 03:41:56;;;;;;;0.93;0.50;;;;;;;;;;5006352;28;20214;-31
2022/06/09 03:44:23;;;;;;;1.27;0.67;;;;;;;;;;5015250;28;20204;-34
2022/06/09 03:46:50;;;;;;;0.83;0.63;;;;;;;;;;5005868;28;20224;-33
2022/06/09 03:49:18;;;;;;;0.40;0.40;;;;;;;;;;5001257;28;20203;-39
2022/06/09 03:51:46;;;;;;;0.83;0.40;;;;;;;;;;5005092;28;20215;-34
2022/06/09 03:54:14;;;;;;;1.73;0.40;;;;;;;;;;5007047;28;20274;-35
2022/06/09 03:56:41;;;;;;;1.17;0.40;;;;;;;;;;5005670;28;20240;-32
2022/06/09 03:59:08;;;;;;;0.30;0.30;;;;;;;;;;4998391;28;20208;-35
2022/06/09 04:01:35;;;;;;;0.60;0.50;;;;;;;;;;5005464;28;20212;-31
2022/06/09 04:04:03;;;;;;;1.03;0.53;;;;;;;;;;5011071;28;20219;-32
2022/06/09 04:06:31;;;;;;;1.57;0.83;;;;;;;;;;5006347;28;20216;-31
2022/06/09 04:08:58;;;;;;;1.13;0.90;;;;;;;;;;4996196;28;20211;-32
2022/06/09 04:11:25;;;;;;;0.90;0.60;;;;;;;;;;5005834;28;20211;-36
2022/06/09 04:13:52;;;;;;;0.70;0.70;;;;;;;;;;4994918;28;20208;-32
2022/06/09 04:16:23;;;;;;;1.43;0.60;;;;;;;;;;5010425;28;20228;-34
2022/06/09 04:18:50;;;;;;;1.97;0.50;;;;;;;;;;5001926;28;20208;-32
2022/06/09 04:21:17;;;;;;;2.00;1.00;;;;;;;;;;5006110;28;20295;-32
2022/06/09 04:23:45;;;;;;;3.00;0.70;;;;;;;;;;5014431;28;20200;-38
2022/06/09 04:26:14;;;;;;;1.27;0.60;;;;;;;;;;5008802;28;20220;-34
2022/06/09 04:28:42;;;;;;;0.97;0.70;;;;;;;;;;5000148;28;20296;-35
2022/06/09 04:31:09;;;;;;;1.93;0.60;;;;;;;;;;5004088;28;20195;-32
2022/06/09 04:33:36;;;;;;;1.13;0.57;;;;;;;;;;4993936;28;20244;-32
2022/06/09 04:36:03;;;;;;;0.60;0.60;;;;;;;;;;5007894;28;20277;-36
2022/06/09 04:38:39;;;;;;;0.53;0.53;;;;;;;;;;5013077;28;20207;-30
2022/06/09 04:41:09;;;;;;;1.77;0.60;;;;;;;;;;5002065;28;20207;-31
2022/06/09 04:43:36;;;;;;;0.83;0.83;;;;;;;;;;5009964;28;20207;-35
2022/06/09 04:46:04;;;;;;;1.50;0.53;;;;;;;;;;5010723;28;20234;-33
2022/06/09 04:48:31;;;;;;;1.97;0.97;;;;;;;;;;4999952;28;20239;-35
2022/06/09 04:50:58;;;;;;;0.90;0.60;;;;;;;;;;5001542;28;20210;-35
2022/06/09 04:53:26;;;;;;;0.60;0.60;;;;;;;;;;5014069;28;20218;-35
2022/06/09 04:55:53;;;;;;;2.47;0.90;;;;;;;;;;5005012;28;20238;-37
2022/06/09 04:58:21;;;;;;;2.10;0.70;;;;;;;;;;5005134;28;20238;-36
2022/06/09 05:00:48;;;;;;;0.87;0.67;;;;;;;;;;4996268;28;20212;-32
2022/06/09 05:03:15;;;;;;;2.37;0.83;;;;;;;;;;5005758;28;20204;-34
2022/06/09 05:05:44;;;;;;;1.90;0.80;;;;;;;;;;5001576;28;20204;-33
2022/06/09 05:08:11;;;;;;;0.77;0.50;;;;;;;;;;4996369;28;20262;-37
2022/06/09 05:10:39;;;;;;;0.70;0.70;;;;;;;;;;5009360;28;20234;-32
2022/06/09 05:13:06;;;;;;;1.37;1.13;;;;;;;;;;5001375;28;20208;-30
2022/06/09 05:15:36;;;;;;;1.50;0.90;;;;;;;;;;5002864;28;20212;-39
2022/06/09 05:18:04;;;;;;;0.70;0.70;;;;;;;;;;4993458;28;20223;-33
2022/06/09 05:20:32;;;;;;;1.93;0.90;;;;;;;;;;5013270;28;20212;-39
2022/06/09 05:22:59;;;;;;;1.30;0.87;;;;;;;;;;4994001;28;20211;-32
2022/06/09 05:25:26;;;;;;;1.43;0.80;;;;;;;;;;4992449;28;20291;-33
2022/06/09 05:27:54;;;;;;;1.67;0.80;;;;;;;;;;5002357;28;20199;-32
2022/06/09 05:30:23;;;;;;;4.97;0.90;;;;;;;;;;5005267;28;20207;-33
2022/06/09 05:32:52;;;;;;;3.50;0.97;;;;;;;;;;5002420;28;20203;-33
2022/06/09 05:35:20;;;;;;;1.70;0.80;;;;;;;;;;5006058;28;20226;-32
2022/06/09 05:46:02;;;;;;;2.70;0.93;;;;;;;;;;4997942;28;20226;-34
2022/06/09 05:48:31;;;;;;;1.53;0.77;;;;;;;;;;5010270;28;20203;-35
2022/06/09 05:50:58;;;;;;;3.70;0.80;;;;;;;;;;5013334;28;20209;-32
2022/06/09 05:53:26;;;;;;;3.50;0.97;;;;;;;;;;5013514;28;20215;-39
2022/06/09 05:55:53;;;;;;;1.33;0.77;;;;;;;;;;4999109;28;20314;-32
2022/06/09 05:58:21;;;;;;;1.37;0.87;;;;;;;;;;5010433;28;20218;-35
2022/06/09 06:00:48;;;;;;;1.33;0.87;;;;;;;;;;5013749;28;20215;-33
2022/06/09 06:03:16;;;;;;;3.43;0.80;;;;;;;;;;5003690;28;20204;-32
2022/06/09 06:08:29;;;;;;;3.23;0.70;;;;;;;;;;4993019;28;20216;-31
2022/06/09 06:10:57;;;;;;;1.20;0.70;;;;;;;;;;5005250;28;20206;-36
2022/06/09 06:13:24;;;;;;;2.07;0.80;;;;;;;;;;4998289;28;20198;-38
2022/06/09 06:15:52;;;;;;;3.00;0.87;;;;;;;;;;5012099;28;20235;-36
2022/06/09 06:18:19;;;;;;;1.53;0.70;;;;;;;;;;5002189;28;20232;-34
2022/06/09 06:20:48;;;;;;;3.07;0.80;;;;;;;;;;5010663;28;20212;-35
2022/06/09 06:23:15;;;;;;;1.77;1.00;;;;;;;;;;5012155;28;20201;-35
2022/06/09 06:25:50;;;;;;;1.33;0.83;;;;;;;;;;4998603;28;20210;-33
2022/06/09 06:28:26;;;;;;;1.47;0.80;;;;;;;;;;5000427;28;20200;-35
2022/06/09 06:30:53;;;;;;;1.97;0.80;;;;;;;;;;5012438;28;20269;-33
2022/06/09 06:33:20;;;;;;;1.00;0.80;;;;;;;;;;4993223;28;20271;-35
2022/06/09 06:35:49;;;;;;;1.37;0.70;;;;;;;;;;5009755;28;20237;-34
2022/06/09 06:38:16;;;;;;;1.58;0.50;;;;;;;;;;5011167;28;20227;-32
2022/06/09 06:40:44;;;;;;;4.03;0.98;;;;;;;;;;5003853;28;20215;-31
2022/06/09 06:43:11;;;;;;;0.90;0.70;;;;;;;;;;5011192;28;20215;-33
2022/06/09 06:45:38;;;;;;;0.88;0.60;;;;;;;;;;5011823;28;20266;-35
2022/06/09 06:48:06;;;;;;;3.65;1.08;;;;;;;;;;5006436;28;20203;-33
2022/06/09 06:50:34;;;;;;;1.35;0.80;;;;;;;;;;5006180;28;20209;-32
2022/06/09 06:53:02;;;;;;;1.98;0.80;;;;;;;;;;5095908;23;20705;-28
2022/06/09 06:55:30;;;;;;;3.75;1.00;;;;;;;;;;5009944;28;20211;-31
2022/06/09 06:57:57;;;;;;;1.42;0.60;;;;;;;;;;5005723;28;20387;-29
2022/06/09 07:00:25;;;;;;;0.50;0.50;;;;;;;;;;5004444;28;20203;-28
2022/06/09 07:02:53;;;;;;;3.35;0.88;;;;;;;;;;4999027;28;20208;-28
2022/06/09 07:05:21;;;;;;;2.40;0.80;;;;;;;;;;5004715;28;20215;-32
2022/06/09 07:07:49;;;;;;;1.63;0.70;;;;;;;;;;4992553;28;20224;-28
2022/06/09 07:10:18;;;;;;;1.65;0.77;;;;;;;;;;4995963;28;20207;-29
2022/06/09 07:12:46;;;;;;;1.80;0.73;;;;;;;;;;5000737;28;20199;-30
2022/06/09 07:15:13;;;;;;;3.03;0.70;;;;;;;;;;5010756;28;20218;-32
2022/06/09 07:17:40;;;;;;;2.43;0.77;;;;;;;;;;5000707;28;20231;-28
2022/06/09 07:20:08;;;;;;;2.17;0.90;;;;;;;;;;5001182;28;20213;-30
2022/06/09 07:22:38;;;;;;;4.00;0.90;;;;;;;;;;5007272;28;20215;-29
2022/06/09 07:25:06;;;;;;;1.80;0.70;;;;;;;;;;5003847;28;20205;-29
2022/06/09 07:27:34;;;;;;;1.60;0.60;;;;;;;;;;4998857;28;20226;-29
2022/06/09 07:30:01;;;;;;;6.13;1.00;;;;;;;;;;5001972;28;20208;-26
2022/06/09 07:32:29;;;;;;;1.80;0.93;;;;;;;;;;5001743;28;20200;-28
2022/06/09 07:34:56;;;;;;;4.03;1.37;;;;;;;;;;5007089;28;20250;-32
2022/06/09 07:37:23;;;;;;;2.37;0.67;;;;;;;;;;5015340;28;20255;-29
2022/06/09 07:39:50;;;;;;;2.43;0.90;;;;;;;;;;5009601;28;20738;-30
2022/06/09 07:42:17;;;;;;;3.50;1.07;;;;;;;;;;5002446;28;20224;-28
2022/06/09 07:44:46;;;;;;;1.63;0.80;;;;;;;;;;5012871;28;20204;-31
2022/06/09 07:47:13;;;;;;;9.13;0.83;;;;;;;;;;5010298;28;20219;-30
2022/06/09 07:49:41;;;;;;;3.83;0.93;;;;;;;;;;5000726;28;20216;-26
2022/06/09 07:52:08;;;;;;;3.10;1.00;;;;;;;;;;5014508;28;20203;-30
2022/06/09 07:54:35;;;;;;;5.17;1.17;;;;;;;;;;5015874;28;20688;-28
2022/06/09 07:57:02;;;;;;;3.30;1.10;;;;;;;;;;5010397;28;20244;-30
2022/06/09 07:59:29;;;;;;;4.07;0.80;;;;;;;;;;5007857;28;20204;-29
2022/06/09 08:01:57;;;;;;;1.97;1.10;;;;;;;;;;5012232;28;20226;-29
2022/06/09 08:04:24;;;;;;;1.53;0.60;;;;;;;;;;4997157;28;20213;-32
2022/06/09 08:06:52;;;;;;;1.57;0.73;;;;;;;;;;5003713;28;20235;-29
2022/06/09 08:09:19;;;;;;;1.40;0.80;;;;;;;;;;4994808;28;20207;-30
2022/06/09 08:11:47;;;;;;;1.60;0.73;;;;;;;;;;5006080;28;20222;-29
2022/06/09 08:14:14;;;;;;;0.63;0.63;;;;;;;;;;5018100;28;20219;-27
2022/06/09 08:16:41;;;;;;;5.73;0.80;;;;;;;;;;5004235;28;20230;-30
2022/06/09 08:19:10;;;;;;;3.03;0.73;;;;;;;;;;5018049;28;20234;-31
2022/06/09 08:21:37;;;;;;;2.27;0.70;;;;;;;;;;5022863;28;20204;-28
2022/06/09 08:24:05;;;;;;;7.17;1.03;;;;;;;;;;5005252;28;20213;-27
2022/06/09 08:26:32;;;;;;;1.83;0.80;;;;;;;;;;5011355;28;20236;-31
2022/06/09 08:28:59;;;;;;;4.17;0.63;;;;;;;;;;5007121;28;20201;-31
2022/06/09 08:31:26;;;;;;;2.77;1.20;;;;;;;;;;5010913;28;20634;-29
2022/06/09 08:33:54;;;;;;;2.33;0.90;;;;;;;;;;5012910;28;20655;-29
2022/06/09 08:36:22;;;;;;;1.13;0.83;;;;;;;;;;5012612;28;20762;-30
2022/06/09 08:38:49;;;;;;;6.03;1.30;;;;;;;;;;5003000;28;20224;-29
2022/06/09 08:41:27;;;;;;;1.73;0.97;;;;;;;;;;5008210;28;20208;-28
2022/06/09 08:43:58;;;;;;;3.20;0.97;;;;;;;;;;5010273;28;20302;-30
2022/06/09 08:46:27;;;;;;;3.33;1.00;;;;;;;;;;5005526;28;20448;-28
2022/06/09 08:48:55;;;;;;;3.33;0.90;;;;;;;;;;5007192;28;20204;-32
2022/06/09 08:51:31;;;;;;;8.20;1.10;;;;;;;;;;5005438;28;20200;-29
2022/06/09 08:54:01;;;;;;;2.43;0.60;;;;;;;;;;5002225;28;20213;-30
2022/06/09 08:56:30;;;;;;;2.40;0.60;;;;;;;;;;5005515;28;20260;-29
2022/06/09 08:58:58;;;;;;;3.10;0.90;;;;;;;;;;5011222;28;20239;-29
2022/06/09 09:01:28;;;;;;;3.07;1.00;;;;;;;;;;5003429;28;20206;-28
2022/06/09 09:03:57;;;;;;;3.00;0.70;;;;;;;;;;4996167;28;20635;-29
2022/06/09 09:06:28;;;;;;;3.43;0.90;;;;;;;;;;5007913;28;20223;-33
2022/06/09 09:08:59;;;;;;;2.50;0.83;;;;;;;;;;5013225;28;20196;-29
2022/06/09 09:11:32;;;;;;;4.77;0.77;;;;;;;;;;4991948;28;20198;-26
2022/06/09 09:14:01;;;;;;;3.33;0.83;;;;;;;;;;5007571;28;20201;-30
2022/06/09 09:16:32;;;;;;;2.77;0.97;;;;;;;;;;5001045;28;20401;-28
2022/06/09 09:19:03;;;;;;;3.27;0.53;;;;;;;;;;4999563;28;20298;-26
2022/06/09 09:21:36;;;;;;;2.33;0.50;;;;;;;;;;5003663;28;20201;-31
2022/06/09 09:24:11;;;;;;;2.20;0.70;;;;;;;;;;5007166;28;20196;-28
2022/06/09 09:26:46;;;;;;;2.03;0.87;;;;;;;;;;4998553;28;20245;-28
2022/06/09 09:29:16;;;;;;;2.37;0.83;;;;;;;;;;5010534;28;20205;-29
2022/06/09 09:31:47;;;;;;;6.63;1.10;;;;;;;;;;5014413;28;20271;-31
2022/06/09 09:34:17;;;;;;;0.87;0.60;;;;;;;;;;5006350;28;20221;-33
2022/06/09 09:36:48;;;;;;;4.17;1.00;;;;;;;;;;5005710;28;20225;-27
2022/06/09 09:39:18;;;;;;;2.27;0.80;;;;;;;;;;5011964;28;20235;-31
2022/06/09 09:41:45;;;;;;;1.67;0.80;;;;;;;;;;5011778;28;20203;-30
2022/06/09 09:44:17;;;;;;;1.37;0.63;;;;;;;;;;5016323;28;20211;-30
2022/06/09 09:46:48;;;;;;;2.97;0.60;;;;;;;;;;5002708;28;20239;-32
2022/06/09 09:49:23;;;;;;;1.27;1.00;;;;;;;;;;5002162;28;20203;-27
2022/06/09 09:51:52;;;;;;;4.10;0.93;;;;;;;;;;5013193;28;20188;-29
2022/06/09 09:54:23;;;;;;;3.83;0.80;;;;;;;;;;5029191;28;20222;-30
2022/06/09 09:57:02;;;;;;;1.17;0.80;;;;;;;;;;5004632;28;20229;-28
2022/06/09 09:59:31;;;;;;;1.67;0.87;;;;;;;;;;5000691;28;20218;-30
2022/06/09 10:10:43;;;;;;;2.10;0.80;;;;;;;;;;5010258;28;20208;-28
2022/06/09 10:13:16;;;;;;;3.10;0.73;;;;;;;;;;5002801;28;20202;-30
2022/06/09 10:15:43;;;;;;;1.77;0.83;;;;;;;;;;5005043;28;20542;-30
2022/06/09 10:18:15;;;;;;;2.20;0.97;;;;;;;;;;5002822;28;20576;-30
2022/06/09 10:20:44;;;;;;;2.63;0.73;;;;;;;;;;5003774;28;20648;-32
2022/06/09 10:23:24;;;;;;;1.50;0.77;;;;;;;;;;5021612;28;20850;-27
2022/06/09 10:25:54;;;;;;;1.03;0.73;;;;;;;;;;5008538;28;20237;-29
2022/06/09 10:28:30;;;;;;;1.70;0.50;;;;;;;;;;5006462;28;20210;-28
2022/06/09 10:31:03;;;;;;;1.60;0.70;;;;;;;;;;5005328;28;20191;-31
2022/06/09 10:33:33;;;;;;;4.07;1.07;;;;;;;;;;4997332;28;20215;-29
2022/06/09 10:36:03;;;;;;;1.33;0.67;;;;;;;;;;4999661;28;20228;-30
2022/06/09 10:38:34;;;;;;;1.73;0.90;;;;;;;;;;5001604;28;20224;-30
2022/06/09 10:41:04;;;;;;;2.40;1.00;;;;;;;;;;5000045;28;20196;-28
2022/06/09 10:43:34;;;;;;;0.63;0.50;;;;;;;;;;4999162;28;20201;-29
2022/06/09 10:46:05;;;;;;;3.83;0.63;;;;;;;;;;5007504;28;20435;-29
2022/06/09 10:57:04;;;;;;;1.20;0.70;;;;;;;;;;5003447;28;20315;-31
2022/06/09 10:59:34;;;;;;;0.63;0.63;;;;;;;;;;4994897;28;20222;-28
2022/06/09 11:02:01;;;;;;;4.67;1.07;;;;;;;;;;5000727;28;20209;-29
2022/06/09 11:04:32;;;;;;;3.20;0.80;;;;;;;;;;4996576;28;20209;-29
2022/06/09 11:07:11;;;;;;;5.27;0.93;;;;;;;;;;5000886;28;20223;-33
2022/06/09 11:09:47;;;;;;;2.87;0.93;;;;;;;;;;4996780;28;20238;-25
2022/06/09 11:12:33;;;;;;;3.47;0.80;;;;;;;;;;5003713;28;20203;-28
2022/06/09 11:15:09;;;;;;;2.37;0.77;;;;;;;;;;4997716;28;20205;-29
2022/06/09 11:17:44;;;;;;;1.20;0.57;;;;;;;;;;5000896;28;20776;-28
2022/06/09 11:20:15;;;;;;;1.83;0.90;;;;;;;;;;4999522;28;20712;-31
2022/06/09 11:22:47;;;;;;;1.30;0.90;;;;;;;;;;4995776;28;20203;-30
2022/06/09 11:25:35;;;;;;;2.60;0.80;;;;;;;;;;5000381;28;20199;-28
2022/06/09 11:28:09;;;;;;;4.07;0.90;;;;;;;;;;4992843;28;20204;-31
2022/06/09 11:30:50;;;;;;;0.70;0.70;;;;;;;;;;5015075;28;20211;-29
2022/06/09 11:33:22;;;;;;;2.77;1.00;;;;;;;;;;4998621;28;20552;-29
2022/06/09 11:35:55;;;;;;;1.77;0.63;;;;;;;;;;4995437;28;20238;-29
2022/06/09 11:38:30;;;;;;;2.13;0.83;;;;;;;;;;4995872;28;20225;-30
2022/06/09 11:41:01;;;;;;;2.20;0.80;;;;;;;;;;4999437;28;20203;-27
2022/06/09 11:43:43;;;;;;;3.17;0.60;;;;;;;;;;5003364;28;20196;-30
2022/06/09 11:46:13;;;;;;;1.33;0.60;;;;;;;;;;5011611;28;20297;-30
2022/06/09 11:48:42;;;;;;;1.10;0.80;;;;;;;;;;5010943;28;20215;-29
2022/06/09 11:51:10;;;;;;;1.53;0.60;;;;;;;;;;5000466;28;20893;-28
2022/06/09 11:53:39;;;;;;;3.33;0.80;;;;;;;;;;5014568;28;20243;-28
2022/06/09 11:56:43;;;;;;;4.37;0.80;;;;;;;;;;4995970;28;20223;-30
2022/06/09 11:59:22;;;;;;;2.43;0.50;;;;;;;;;;5005759;28;20224;-30
2022/06/09 12:01:59;;;;;;;0.67;0.60;;;;;;;;;;5008509;28;20299;-29
2022/06/09 12:04:53;;;;;;;3.63;0.70;;;;;;;;;;5005908;28;20230;-27
2022/06/09 12:07:29;;;;;;;1.57;0.73;;;;;;;;;;5014438;28;20224;-31
2022/06/09 12:10:00;;;;;;;4.07;0.57;;;;;;;;;;5006872;28;20196;-31
2022/06/09 12:12:30;;;;;;;2.43;0.70;;;;;;;;;;5000271;28;20282;-29
2022/06/09 12:15:16;;;;;;;2.00;0.80;;;;;;;;;;5013542;28;20208;-31
2022/06/09 12:17:55;;;;;;;2.20;0.50;;;;;;;;;;5000892;28;20605;-32
2022/06/09 12:20:27;;;;;;;0.93;0.53;;;;;;;;;;5007034;28;20232;-29
2022/06/09 12:23:01;;;;;;;0.50;0.50;;;;;;;;;;5014933;28;20283;-32
2022/06/09 12:25:33;;;;;;;2.57;0.70;;;;;;;;;;5004196;28;20564;-29
2022/06/09 12:28:00;;;;;;;1.63;0.70;;;;;;;;;;4994359;28;20221;-29
2022/06/09 12:30:29;;;;;;;1.00;0.70;;;;;;;;;;4998216;28;20209;-29
2022/06/09 12:33:18;;;;;;;1.27;0.87;;;;;;;;;;5004157;28;20560;-30
2022/06/09 12:35:48;;;;;;;5.17;0.80;;;;;;;;;;4994537;28;20223;-28
2022/06/09 12:38:21;;;;;;;0.83;0.70;;;;;;;;;;4994527;28;20192;-29
2022/06/09 12:40:50;;;;;;;2.37;0.70;;;;;;;;;;4999885;28;20929;-31
2022/06/09 12:43:23;;;;;;;0.97;0.70;;;;;;;;;;5013087;28;20216;-31
2022/06/09 12:46:00;;;;;;;1.20;0.97;;;;;;;;;;5013183;28;20592;-30
2022/06/09 12:48:33;;;;;;;3.90;0.93;;;;;;;;;;5003155;28;20288;-28
2022/06/09 12:51:01;;;;;;;5.43;1.07;;;;;;;;;;5005726;28;20551;-29
2022/06/09 12:58:36;;;;;;;1.73;0.67;;;;;;;;;;5004010;28;20209;-46
2022/06/09 13:01:05;;;;;;;2.77;0.67;;;;;;;;;;5012474;28;20204;-42
2022/06/09 13:03:35;;;;;;;1.63;0.73;;;;;;;;;;4998346;28;20205;-46
2022/06/09 13:06:17;;;;;;;1.10;1.00;;;;;;;;;;5006628;28;20222;-45
2022/06/09 13:08:46;;;;;;;3.57;0.63;;;;;;;;;;5014316;28;20579;-45
2022/06/09 13:11:18;;;;;;;1.27;0.70;;;;;;;;;;4999874;28;20214;-45
2022/06/09 13:13:45;;;;;;;1.37;0.83;;;;;;;;;;5010957;28;20208;-44
2022/06/09 13:16:13;;;;;;;1.80;0.60;;;;;;;;;;5002216;28;20263;-44
2022/06/09 13:18:44;;;;;;;2.00;1.00;;;;;;;;;;5002306;28;20213;-44
2022/06/09 13:21:15;;;;;;;3.33;0.60;;;;;;;;;;4999488;28;20196;-47
2022/06/09 13:23:43;;;;;;;2.07;0.70;;;;;;;;;;5013161;28;20194;-42
2022/06/09 13:26:13;;;;;;;2.07;0.70;;;;;;;;;;5011773;28;20229;-46
2022/06/09 13:28:46;;;;;;;2.57;0.60;;;;;;;;;;4998732;28;20221;-48
2022/06/09 13:31:27;;;;;;;1.40;0.77;;;;;;;;;;5005027;28;20207;-45
2022/06/09 13:33:58;;;;;;;3.03;0.60;;;;;;;;;;5004251;28;20206;-46
2022/06/09 13:36:36;;;;;;;2.30;0.70;;;;;;;;;;5013336;28;20236;-42
2022/06/09 13:39:18;;;;;;;2.77;0.90;;;;;;;;;;5013383;28;20229;-46
2022/06/09 13:41:45;;;;;;;2.47;0.73;;;;;;;;;;5000599;28;20214;-45
2022/06/09 13:44:15;;;;;;;0.93;0.83;;;;;;;;;;5015261;28;20200;-43
2022/06/09 13:46:56;;;;;;;1.27;0.70;;;;;;;;;;5008343;28;20227;-47
2022/06/09 13:49:26;;;;;;;2.10;0.73;;;;;;;;;;5008355;28;20196;-45
2022/06/09 13:51:58;;;;;;;2.67;0.80;;;;;;;;;;5004992;28;20574;-39
2022/06/09 13:54:29;;;;;;;1.50;0.67;;;;;;;;;;5012852;28;20217;-41
2022/06/09 13:56:56;;;;;;;4.33;0.97;;;;;;;;;;5005946;28;20237;-43
2022/06/09 13:59:23;;;;;;;2.00;0.73;;;;;;;;;;4992686;28;20692;-45
2022/06/09 14:01:52;;;;;;;3.90;0.90;;;;;;;;;;4993698;28;20213;-44
2022/06/09 14:04:21;;;;;;;1.27;0.87;;;;;;;;;;4997040;28;20217;-46
2022/06/09 14:06:51;;;;;;;1.93;0.80;;;;;;;;;;5001437;28;20261;-43
2022/06/09 14:09:18;;;;;;;2.53;0.80;;;;;;;;;;5012978;28;20216;-44
2022/06/09 14:11:46;;;;;;;2.80;0.83;;;;;;;;;;5002670;28;20209;-43
2022/06/09 14:14:13;;;;;;;2.83;1.03;;;;;;;;;;4999693;28;20210;-44
2022/06/09 14:16:42;;;;;;;1.50;1.00;;;;;;;;;;5003800;28;20254;-45
2022/06/09 14:19:12;;;;;;;2.97;0.83;;;;;;;;;;5003218;28;20212;-44
2022/06/09 14:21:39;;;;;;;2.10;0.80;;;;;;;;;;4998675;28;20209;-44
2022/06/09 14:24:12;;;;;;;5.33;1.03;;;;;;;;;;5001122;28;20206;-45
2022/06/09 14:26:39;;;;;;;1.97;0.70;;;;;;;;;;5012632;28;20259;-45
2022/06/09 14:29:07;;;;;;;3.47;1.20;;;;;;;;;;5004797;28;20220;-41
2022/06/09 14:31:37;;;;;;;2.37;0.83;;;;;;;;;;5005912;28;20233;-44
2022/06/09 14:34:05;;;;;;;1.40;0.77;;;;;;;;;;4999021;28;20210;-41
2022/06/09 14:36:32;;;;;;;1.63;0.70;;;;;;;;;;4998145;28;20229;-42
2022/06/09 14:39:01;;;;;;;1.37;1.00;;;;;;;;;;5015058;28;20204;-44
2022/06/09 14:41:30;;;;;;;4.27;1.30;;;;;;;;;;5011839;28;20215;-44
2022/06/09 14:43:57;;;;;;;3.60;1.13;;;;;;;;;;5009715;28;20210;-44
2022/06/09 14:46:26;;;;;;;1.23;1.00;;;;;;;;;;5006281;28;20326;-42
2022/06/09 14:48:53;;;;;;;5.03;1.00;;;;;;;;;;5012130;28;20248;-46
2022/06/09 14:51:21;;;;;;;5.37;1.07;;;;;;;;;;5010535;28;20197;-43
2022/06/09 14:53:48;;;;;;;2.77;1.10;;;;;;;;;;5015581;28;20212;-43
2022/06/09 14:56:16;;;;;;;1.77;0.80;;;;;;;;;;5011499;28;20688;-42
2022/06/09 14:58:44;;;;;;;2.87;1.30;;;;;;;;;;5013272;28;20209;-41
2022/06/09 15:01:14;;;;;;;2.40;0.70;;;;;;;;;;4995696;28;20225;-41
2022/06/09 15:03:41;;;;;;;3.43;1.20;;;;;;;;;;5008715;28;20254;-44
2022/06/09 15:06:08;;;;;;;2.43;1.30;;;;;;;;;;5005066;28;20295;-44
2022/06/09 15:08:35;;;;;;;3.13;1.03;;;;;;;;;;5015982;28;20205;-42
2022/06/09 15:11:03;;;;;;;2.57;1.00;;;;;;;;;;5016522;28;20211;-43
2022/06/09 15:13:30;;;;;;;2.47;0.93;;;;;;;;;;5002484;28;20210;-43
2022/06/09 15:16:01;;;;;;;5.47;1.70;;;;;;;;;;5005729;28;20259;-43
2022/06/09 15:18:29;;;;;;;5.73;2.20;;;;;;;;;;4997902;28;20373;-45
2022/06/09 15:20:57;;;;;;;4.50;1.90;;;;;;;;;;5000186;28;20545;-41
2022/06/09 15:23:24;;;;;;;3.87;1.97;;;;;;;;;;5000927;28;20208;-43
2022/06/09 15:25:52;;;;;;;4.03;1.77;;;;;;;;;;4997057;28;20224;-46
2022/06/09 15:28:21;;;;;;;3.90;1.63;;;;;;;;;;5007380;28;20216;-42
2022/06/09 15:30:50;;;;;;;2.80;1.67;;;;;;;;;;5014706;28;20200;-41
2022/06/09 15:33:21;;;;;;;1.77;1.27;;;;;;;;;;5005686;28;20204;-40